Time;durP1;ratioP1;P1;durP2;ratioP2;P2;SDS_P1;SDS_P2;PMS_P1;PMS_P2;Temp;Humidity;BMP_temperature;BMP_pressure;BME280_temperature;BME280_humidity;BME280_pressure;Samples;Min_cycle;Max_cycle;Signal;HPM_P1;HPM_P2
2022/02/18 00:02:57;;;;;;;70.87;65.53;;;;;;;9.36;100.00;100731.17;1991019;71;33202;-75
2022/02/18 00:08:42;;;;;;;73.47;67.50;;;;;;;9.43;100.00;100739.47;1994600;71;32822;-75
2022/02/18 00:14:26;;;;;;;76.27;70.03;;;;;;;9.61;100.00;100718.63;1996341;71;32886;-76
2022/02/18 00:20:11;;;;;;;74.60;68.40;;;;;;;9.44;100.00;100684.30;2008856;71;30922;-71
2022/02/18 00:25:56;;;;;;;78.37;71.67;;;;;;;9.44;100.00;100641.34;2008011;71;33349;-78
2022/02/18 00:31:40;;;;;;;77.17;69.37;;;;;;;9.46;100.00;100638.26;1999918;71;32827;-72
2022/02/18 00:37:25;;;;;;;78.27;71.20;;;;;;;9.57;100.00;100576.13;2002019;71;32963;-75
2022/02/18 00:43:09;;;;;;;73.27;66.47;;;;;;;9.59;100.00;100567.78;2012455;71;32882;-76
2022/02/18 00:48:54;;;;;;;71.70;64.33;;;;;;;9.59;100.00;100569.72;2016010;71;32850;-75
2022/02/18 00:54:39;;;;;;;75.37;67.83;;;;;;;9.66;100.00;100538.92;2009351;71;32779;-75
2022/02/18 01:00:23;;;;;;;73.47;65.53;;;;;;;9.70;100.00;100529.74;1990899;71;33205;-75
2022/02/18 01:06:07;;;;;;;70.67;63.50;;;;;;;9.70;100.00;100489.53;2009431;71;32922;-75
2022/02/18 01:11:52;;;;;;;75.10;68.07;;;;;;;9.69;100.00;100467.06;2004964;71;32941;-72
2022/02/18 01:17:36;;;;;;;70.27;63.30;;;;;;;9.66;100.00;100451.02;2010320;71;32912;-71
2022/02/18 01:23:23;;;;;;;81.10;66.47;;;;;;;9.69;100.00;100424.08;2010518;71;32891;-73
2022/02/18 01:29:07;;;;;;;75.60;65.73;;;;;;;9.73;100.00;100386.88;2000042;71;32905;-75
2022/02/18 01:34:52;;;;;;;76.63;68.90;;;;;;;9.73;100.00;100355.81;2003964;71;33240;-72
2022/02/18 01:40:36;;;;;;;76.23;68.17;;;;;;;9.75;100.00;100352.77;2008602;71;32906;-75
2022/02/18 01:46:22;;;;;;;77.63;69.13;;;;;;;9.79;100.00;100312.23;1993213;70;33285;-75
2022/02/18 01:52:07;;;;;;;78.33;70.57;;;;;;;9.76;100.00;100296.98;2004090;71;32976;-76
2022/02/18 01:57:54;;;;;;;78.83;71.43;;;;;;;9.70;100.00;100284.86;1998455;71;33018;-76
2022/02/18 02:03:41;;;;;;;74.23;67.13;;;;;;;9.64;100.00;100261.90;2014277;71;32840;-72
2022/02/18 02:09:28;;;;;;;72.70;66.77;;;;;;;9.56;100.00;100234.27;2017872;71;32836;-75
2022/02/18 02:15:13;;;;;;;69.27;63.50;;;;;;;9.54;100.00;100201.03;2012670;70;32946;-72
2022/02/18 02:20:58;;;;;;;71.00;65.20;;;;;;;9.37;100.00;100168.20;2010923;71;33818;-71
2022/02/18 02:26:42;;;;;;;72.70;66.60;;;;;;;9.32;100.00;100141.95;2007225;71;32821;-72
2022/02/18 02:32:28;;;;;;;71.53;65.83;;;;;;;9.18;100.00;100098.05;2008757;71;33362;-72
2022/02/18 02:38:12;;;;;;;70.53;64.87;;;;;;;9.13;100.00;100081.48;2005139;71;33441;-72
2022/02/18 02:43:56;;;;;;;69.03;63.50;;;;;;;9.09;100.00;100057.70;2000215;71;32870;-72
2022/02/18 02:49:41;;;;;;;66.87;61.67;;;;;;;9.15;100.00;100048.77;2004891;71;32876;-71
2022/02/18 02:55:25;;;;;;;69.23;64.30;;;;;;;9.22;100.00;100009.05;2001718;71;32742;-75
2022/02/18 03:01:09;;;;;;;65.93;61.23;;;;;;;9.27;100.00;99985.45;2005382;71;32867;-72
2022/02/18 03:06:52;;;;;;;62.27;57.57;;;;;;;9.31;100.00;99971.81;2015813;71;33391;-75
2022/02/18 03:12:36;;;;;;;64.23;59.47;;;;;;;9.36;100.00;99942.64;2012098;71;32961;-74
2022/02/18 03:18:23;;;;;;;61.70;57.50;;;;;;;9.44;100.00;99924.78;2008552;71;32812;-72
2022/02/18 03:24:07;;;;;;;58.47;54.20;;;;;;;9.49;100.00;99896.16;1998185;71;32740;-72
2022/02/18 03:29:51;;;;;;;58.10;53.83;;;;;;;9.50;100.00;99877.83;1997822;71;33330;-72
2022/02/18 03:35:35;;;;;;;53.47;49.67;;;;;;;9.62;100.00;99851.04;2001537;71;32868;-75
2022/02/18 03:41:20;;;;;;;53.10;49.10;;;;;;;9.66;100.00;99823.52;2010911;71;32791;-73
2022/02/18 03:47:05;;;;;;;57.70;53.50;;;;;;;9.77;100.00;99786.16;2006938;71;32886;-74
2022/02/18 03:52:51;;;;;;;56.77;52.77;;;;;;;9.91;100.00;99760.09;2002928;71;32867;-73
2022/02/18 03:58:36;;;;;;;54.53;50.63;;;;;;;10.05;100.00;99734.55;2010986;71;32871;-73
2022/02/18 04:04:20;;;;;;;52.27;48.33;;;;;;;10.21;100.00;99720.39;1997604;71;32810;-75
2022/02/18 04:10:05;;;;;;;56.17;52.27;;;;;;;10.34;100.00;99707.89;2017873;71;33352;-75
2022/02/18 04:15:51;;;;;;;50.53;46.83;;;;;;;10.44;100.00;99687.39;2003162;71;33194;-73
2022/02/18 04:21:35;;;;;;;52.83;49.03;;;;;;;10.61;100.00;99679.80;2015978;71;33441;-74
2022/02/18 04:27:23;;;;;;;50.17;46.50;;;;;;;10.75;100.00;99663.89;2006637;71;30893;-75
2022/02/18 04:33:07;;;;;;;48.90;45.53;;;;;;;10.91;100.00;99645.13;2001757;71;32837;-72
2022/02/18 04:38:51;;;;;;;47.70;44.00;;;;;;;11.05;100.00;99624.78;2010599;71;32829;-74
2022/02/18 04:44:36;;;;;;;48.00;44.50;;;;;;;11.10;100.00;99615.75;2012358;71;32831;-73
2022/02/18 04:50:22;;;;;;;50.93;47.53;;;;;;;11.22;100.00;99595.70;2011054;71;32779;-75
2022/02/18 04:56:08;;;;;;;47.03;43.53;;;;;;;11.31;100.00;99568.77;2013998;71;32924;-73
2022/02/18 05:01:52;;;;;;;49.67;46.17;;;;;;;11.41;100.00;99550.41;1949561;71;39589;-75
2022/02/18 05:07:35;;;;;;;49.53;46.03;;;;;;;11.53;100.00;99540.05;1999992;71;32875;-72
2022/02/18 05:13:20;;;;;;;49.73;46.10;;;;;;;11.53;100.00;99524.19;2014250;71;33007;-72
2022/02/18 05:19:06;;;;;;;47.60;44.10;;;;;;;11.60;100.00;99507.83;2011209;71;32880;-73
2022/02/18 05:24:43;;;;;;;48.80;45.20;;;;;;;11.56;100.00;99478.22;2018322;71;32930;-73
2022/02/18 05:30:27;;;;;;;49.20;45.60;;;;;;;11.65;100.00;99466.53;2005033;71;33306;-73
2022/02/18 05:36:11;;;;;;;49.90;46.30;;;;;;;11.64;100.00;99447.63;1996380;71;32861;-73
2022/02/18 05:41:55;;;;;;;48.83;45.10;;;;;;;11.68;100.00;99428.36;2010378;71;33491;-75
2022/02/18 05:47:41;;;;;;;53.57;49.87;;;;;;;11.65;100.00;99414.52;2015740;71;32935;-73
2022/02/18 05:53:26;;;;;;;51.00;47.50;;;;;;;11.66;100.00;99382.78;2008835;71;32887;-72
2022/02/18 05:59:11;;;;;;;42.63;39.23;;;;;;;11.74;100.00;99360.30;2005011;71;32984;-73
2022/02/18 06:04:55;;;;;;;45.60;42.20;;;;;;;11.73;100.00;99340.02;1964966;72;33021;-72
2022/02/18 06:10:39;;;;;;;47.97;44.47;;;;;;;11.69;100.00;99332.63;2010360;71;33361;-75
2022/02/18 06:16:24;;;;;;;42.70;39.40;;;;;;;11.75;100.00;99327.17;2007462;71;33265;-75
2022/02/18 06:22:08;;;;;;;44.97;41.30;;;;;;;11.80;100.00;99315.88;2011035;71;32819;-74
2022/02/18 06:27:53;;;;;;;45.07;41.57;;;;;;;11.85;100.00;99295.64;2011207;71;33268;-73
2022/02/18 06:33:38;;;;;;;44.77;41.23;;;;;;;11.82;100.00;99282.97;2014463;71;32945;-74
2022/02/18 06:39:23;;;;;;;43.77;40.37;;;;;;;11.84;100.00;99277.91;1999608;71;33382;-73
2022/02/18 06:45:10;;;;;;;43.30;39.90;;;;;;;11.87;100.00;99266.11;2012933;71;33296;-72
2022/02/18 06:50:54;;;;;;;51.23;47.00;;;;;;;11.83;100.00;99245.66;2000190;71;33375;-71
2022/02/18 06:56:38;;;;;;;49.77;45.73;;;;;;;11.82;100.00;99262.92;1999488;71;32856;-74
2022/02/18 07:02:23;;;;;;;55.07;50.67;;;;;;;11.83;100.00;99291.00;2015828;71;32944;-73
2022/02/18 07:08:07;;;;;;;55.73;51.13;;;;;;;11.88;100.00;99253.02;1996277;71;32766;-74
2022/02/18 07:13:51;;;;;;;56.90;52.30;;;;;;;11.82;100.00;99272.66;1996330;71;33320;-74
2022/02/18 07:19:36;;;;;;;60.07;55.27;;;;;;;11.83;100.00;99264.56;2003449;71;33266;-72
2022/02/18 07:25:20;;;;;;;59.10;54.20;;;;;;;11.74;100.00;99229.58;2008791;71;32795;-72
2022/02/18 07:31:04;;;;;;;63.87;58.67;;;;;;;11.75;100.00;99210.36;1998016;71;32968;-75
2022/02/18 07:36:48;;;;;;;64.77;59.43;;;;;;;11.68;100.00;99193.34;1994618;71;32846;-73
2022/02/18 07:42:32;;;;;;;68.33;62.63;;;;;;;11.72;100.00;99196.52;2010813;71;32910;-71
2022/02/18 07:48:16;;;;;;;67.43;61.30;;;;;;;11.68;100.00;99210.82;2010351;71;32865;-73
2022/02/18 07:54:01;;;;;;;70.97;64.90;;;;;;;11.62;100.00;99187.14;2003689;71;33246;-74
2022/02/18 07:59:47;;;;;;;62.03;56.50;;;;;;;11.57;100.00;99199.83;2010435;71;32835;-72
2022/02/18 08:05:31;;;;;;;63.77;58.10;;;;;;;11.66;100.00;99187.28;2011123;71;33268;-73
2022/02/18 08:11:18;;;;;;;64.33;58.70;;;;;;;11.59;100.00;99180.86;2005459;71;33373;-71
2022/02/18 08:17:02;;;;;;;67.27;61.27;;;;;;;11.59;100.00;99172.52;1994176;71;33325;-71
2022/02/18 08:22:46;;;;;;;71.20;64.90;;;;;;;11.56;100.00;99174.55;2001416;71;33331;-74
2022/02/18 08:28:31;;;;;;;75.43;68.00;;;;;;;11.35;100.00;99175.03;2016018;71;32837;-75
2022/02/18 08:34:15;;;;;;;73.30;65.70;;;;;;;11.12;100.00;99195.86;2004807;71;32897;-72
2022/02/18 08:40:00;;;;;;;70.60;62.93;;;;;;;11.01;100.00;99168.16;2007419;70;32896;-74
2022/02/18 08:45:44;;;;;;;66.13;60.07;;;;;;;10.89;100.00;99137.70;2016091;71;33337;-72
2022/02/18 08:51:29;;;;;;;63.00;56.80;;;;;;;10.96;100.00;99133.84;2005425;71;32873;-74
2022/02/18 08:57:14;;;;;;;64.00;57.50;;;;;;;11.06;100.00;99146.58;2015856;71;32872;-74
2022/02/18 09:02:58;;;;;;;66.93;61.07;;;;;;;10.80;100.00;99120.80;1992141;71;32907;-72
2022/02/18 09:08:42;;;;;;;69.97;63.43;;;;;;;10.80;100.00;99074.98;2016016;71;32917;-72
2022/02/18 09:14:27;;;;;;;67.93;61.10;;;;;;;10.72;100.00;99055.81;1990795;71;32987;-75
2022/02/18 09:20:12;;;;;;;68.47;62.20;;;;;;;10.91;100.00;99045.73;2011137;71;32848;-74
2022/02/18 09:25:57;;;;;;;69.03;63.43;;;;;;;10.91;100.00;99055.45;2001755;71;32897;-75
2022/02/18 09:31:43;;;;;;;80.90;73.50;;;;;;;10.71;100.00;99058.34;2017811;71;32918;-76
2022/02/18 09:37:27;;;;;;;80.80;73.60;;;;;;;10.13;100.00;99052.48;2015976;71;31368;-74
2022/02/18 09:43:11;;;;;;;74.73;67.60;;;;;;;9.91;100.00;99019.61;1999649;71;32911;-74
2022/02/18 09:48:56;;;;;;;72.93;66.27;;;;;;;10.04;100.00;98989.51;2012221;71;32902;-74
2022/02/18 09:54:42;;;;;;;70.17;64.60;;;;;;;9.98;100.00;98954.75;2014277;71;32971;-73
2022/02/18 10:00:27;;;;;;;61.60;56.30;;;;;;;10.14;100.00;98915.42;2005566;70;33271;-73
2022/02/18 10:06:11;;;;;;;58.80;54.23;;;;;;;10.38;100.00;98892.94;2000169;71;33296;-75
2022/02/18 10:12:04;;;;;;;55.73;51.60;;;;;;;10.58;100.00;98860.85;2014514;71;32964;-74
2022/02/18 10:18:09;;;;;;;50.87;47.10;;;;;;;10.61;100.00;98827.47;2014368;71;32923;-73
2022/02/18 10:24:09;;;;;;;47.77;43.57;;;;;;;10.61;100.00;98808.81;2000035;71;33229;-75
2022/02/18 10:29:59;;;;;;;45.93;41.73;;;;;;;10.75;100.00;98746.92;1998184;71;32829;-72
2022/02/18 10:35:44;;;;;;;46.67;42.90;;;;;;;10.86;100.00;98746.78;2008651;71;32839;-72
2022/02/18 10:41:29;;;;;;;43.30;39.57;;;;;;;11.03;100.00;98688.06;2006770;71;33410;-71
2022/02/18 10:47:24;;;;;;;39.10;35.43;;;;;;;11.05;100.00;98678.23;2007355;71;32943;-72
2022/02/18 10:53:13;;;;;;;36.40;33.17;;;;;;;11.21;100.00;98716.72;2007143;71;33284;-75
2022/02/18 10:59:07;;;;;;;33.33;28.90;;;;;;;11.31;100.00;98695.46;1999928;71;32792;-75
2022/02/18 11:04:59;;;;;;;26.73;24.30;;;;;;;11.34;100.00;98691.98;2017801;71;32796;-71
2022/02/18 11:10:48;;;;;;;29.47;26.70;;;;;;;11.29;100.00;98669.99;2012554;71;32892;-75
2022/02/18 11:16:33;;;;;;;27.00;24.53;;;;;;;11.18;100.00;98699.34;2010805;71;33282;-75
2022/02/18 11:22:20;;;;;;;24.33;21.33;;;;;;;11.25;100.00;98639.06;2014228;71;32840;-73
2022/02/18 11:28:05;;;;;;;23.17;20.97;;;;;;;11.35;100.00;98646.37;2015819;71;33270;-72
2022/02/18 11:38:17;;;;;;;25.97;23.17;;;;;;;11.28;100.00;98652.27;2016164;71;32847;-72
2022/02/18 11:44:13;;;;;;;23.37;21.13;;;;;;;11.24;100.00;98587.42;2000655;71;31731;-74
2022/02/18 11:50:11;;;;;;;27.30;22.70;;;;;;;11.24;100.00;98592.41;1941004;74;33494;-72
2022/02/18 11:56:01;;;;;;;28.37;23.70;;;;;;;11.31;100.00;98581.52;2003268;71;32883;-74
2022/02/18 11:58:42;;;;;;;23.27;21.13;;;;;;;11.41;100.00;98596.37;1979873;72;26208;-72
2022/02/18 12:04:27;;;;;;;23.20;21.00;;;;;;;11.29;100.00;98592.76;2012819;71;32836;-72
2022/02/18 12:10:47;;;;;;;22.87;20.63;;;;;;;11.31;100.00;98623.78;2017878;71;32902;-75
2022/02/18 12:13:19;;;;;;;20.83;19.10;;;;;;;11.23;100.00;98625.50;1960395;72;26212;-75
2022/02/18 12:19:10;;;;;;;22.47;20.90;;;;;;;11.16;100.00;98624.45;2012294;71;33392;-75
2022/02/18 12:25:25;;;;;;;25.47;23.30;;;;;;;11.10;100.00;98649.42;2015888;71;33370;-72
2022/02/18 12:31:11;;;;;;;22.23;20.70;;;;;;;11.01;100.00;98658.41;2010237;71;32840;-72
2022/02/18 12:36:58;;;;;;;21.00;19.37;;;;;;;11.09;100.00;98661.68;2009442;71;33619;-77
2022/02/18 12:43:00;;;;;;;21.10;19.67;;;;;;;10.92;100.00;98717.63;1996349;71;32857;-74
2022/02/18 12:49:04;;;;;;;24.10;22.47;;;;;;;10.86;100.00;98734.28;2008723;71;32835;-76
2022/02/18 12:54:51;;;;;;;38.27;35.60;;;;;;;10.44;100.00;98779.77;2004968;71;32869;-75
2022/02/18 13:00:36;;;;;;;31.27;28.90;;;;;;;10.37;100.00;98790.59;1994393;71;32742;-75
2022/02/18 13:06:23;;;;;;;28.27;25.90;;;;;;;10.23;100.00;98828.83;2014305;71;32826;-72
2022/02/18 13:12:08;;;;;;;28.40;26.20;;;;;;;9.96;100.00;98833.64;2014471;71;32821;-75
2022/02/18 13:17:55;;;;;;;28.03;25.83;;;;;;;9.80;100.00;98886.58;2004065;71;32851;-76
2022/02/18 13:23:47;;;;;;;25.57;23.63;;;;;;;9.76;100.00;98896.70;2006950;71;32962;-72
2022/02/18 13:29:43;;;;;;;26.07;24.20;;;;;;;9.58;100.00;98953.30;2017792;70;33354;-72
2022/02/18 13:35:37;;;;;;;23.27;21.83;;;;;;;9.58;100.00;98985.95;2000080;71;33310;-75
2022/02/18 13:41:37;;;;;;;25.10;23.50;;;;;;;9.63;100.00;99025.18;2009183;71;32917;-74
2022/02/18 13:47:21;;;;;;;25.37;23.93;;;;;;;9.56;100.00;99058.11;2015864;71;33397;-72
2022/02/18 13:53:05;;;;;;;20.80;19.70;;;;;;;9.53;100.00;99095.61;1994110;71;33258;-71
2022/02/18 13:58:50;;;;;;;17.63;16.63;;;;;;;9.40;100.00;99111.78;2005030;71;33478;-72
2022/02/18 14:04:38;;;;;;;16.83;16.03;;;;;;;9.67;100.00;99117.64;1970649;72;33556;-75
2022/02/18 14:10:25;;;;;;;16.17;15.43;;;;;;;9.68;100.00;99151.16;2003131;71;32951;-71
2022/02/18 14:16:15;;;;;;;16.80;15.90;;;;;;;9.78;100.00;99188.88;2014171;71;32966;-74
2022/02/18 14:22:10;;;;;;;15.50;14.70;;;;;;;9.87;100.00;99246.58;2014104;71;32838;-71
2022/02/18 14:27:56;;;;;;;14.90;14.20;;;;;;;9.72;100.00;99282.45;2014204;71;32839;-72
2022/02/18 14:33:58;;;;;;;15.27;14.47;;;;;;;9.72;100.00;99310.74;2005240;71;33405;-74
2022/02/18 14:39:49;;;;;;;15.37;14.67;;;;;;;9.77;100.00;99351.64;2010895;71;32782;-71
2022/02/18 14:45:34;;;;;;;13.80;13.10;;;;;;;9.73;100.00;99392.22;2010793;71;33321;-72
2022/02/18 14:51:20;;;;;;;14.60;13.70;;;;;;;9.55;100.00;99461.95;2001944;71;33242;-75
2022/02/18 14:57:06;;;;;;;14.20;13.50;;;;;;;9.68;100.00;99483.83;2009318;71;32831;-72
2022/02/18 15:02:50;;;;;;;14.17;13.30;;;;;;;9.62;100.00;99533.61;2007308;71;32820;-72
2022/02/18 15:08:35;;;;;;;13.53;12.90;;;;;;;9.71;100.00;99547.56;2005629;71;33212;-75
2022/02/18 15:14:20;;;;;;;13.10;12.37;;;;;;;9.60;100.00;99608.77;1998174;71;32828;-72
2022/02/18 15:20:05;;;;;;;12.83;11.93;;;;;;;9.78;100.00;99622.25;2005434;71;32899;-71
2022/02/18 15:25:49;;;;;;;12.23;11.53;;;;;;;9.83;100.00;99642.13;2008720;71;32875;-75
2022/02/18 15:37:35;;;;;;;11.37;10.57;;;;;;;9.90;100.00;99703.53;1994729;71;33294;-72
2022/02/18 15:43:21;;;;;;;12.17;11.33;;;;;;;9.85;100.00;99741.07;2017794;71;32900;-72
2022/02/18 15:49:05;;;;;;;12.20;11.30;;;;;;;9.70;100.00;99755.24;2001916;71;33320;-74
2022/02/18 15:54:49;;;;;;;11.37;10.57;;;;;;;9.71;100.00;99761.05;2012506;71;33406;-75
2022/02/18 16:00:34;;;;;;;11.70;10.80;;;;;;;9.76;100.00;99760.94;2010586;71;33363;-75
2022/02/18 16:06:18;;;;;;;11.97;10.97;;;;;;;9.71;100.00;99792.38;2014118;71;33369;-75
2022/02/18 16:12:03;;;;;;;12.10;11.00;;;;;;;9.55;100.00;99838.11;1996253;70;32876;-72
2022/02/18 16:17:48;;;;;;;11.50;10.60;;;;;;;9.49;100.00;99858.19;2012840;71;33197;-71
2022/02/18 16:23:33;;;;;;;11.00;10.20;;;;;;;9.45;100.00;99889.02;2006991;71;32813;-76
2022/02/18 16:29:17;;;;;;;11.30;10.50;;;;;;;9.32;100.00;99899.47;2003422;71;33346;-72
2022/02/18 16:35:01;;;;;;;10.80;10.20;;;;;;;9.12;100.00;99906.12;2007194;71;32915;-73
2022/02/18 16:40:47;;;;;;;11.40;10.60;;;;;;;9.06;100.00;99926.72;2013233;71;32840;-76
2022/02/18 16:46:31;;;;;;;10.93;10.20;;;;;;;8.95;100.00;99929.90;2018116;71;32873;-76
2022/02/18 16:52:15;;;;;;;12.33;11.10;;;;;;;9.12;100.00;99936.59;2014400;71;32877;-72
2022/02/18 16:58:00;;;;;;;11.70;10.60;;;;;;;9.18;100.00;99932.37;1991229;71;32792;-77
2022/02/18 17:03:44;;;;;;;12.20;11.10;;;;;;;9.03;100.00;99953.60;2003541;71;32762;-72
2022/02/18 17:09:29;;;;;;;12.30;11.30;;;;;;;9.26;100.00;99977.42;2017808;71;33276;-74
2022/02/18 17:15:16;;;;;;;16.23;11.93;;;;;;;8.87;100.00;100003.39;1992123;71;32753;-76
2022/02/18 17:21:01;;;;;;;13.00;11.80;;;;;;;8.75;100.00;100031.22;2015726;71;32832;-71
2022/02/18 17:26:45;;;;;;;14.17;12.77;;;;;;;8.62;100.00;100073.70;2003690;71;32753;-75
2022/02/18 17:32:34;;;;;;;12.87;11.93;;;;;;;8.43;100.00;100058.92;2016309;71;32904;-74
2022/02/18 17:38:20;;;;;;;13.40;12.07;;;;;;;8.46;100.00;100094.89;2015831;71;32905;-71
2022/02/18 17:44:05;;;;;;;13.30;11.90;;;;;;;8.43;100.00;100120.38;2001980;71;33298;-73
2022/02/18 17:49:50;;;;;;;13.90;12.40;;;;;;;8.55;100.00;100134.12;2003396;71;33347;-74
2022/02/18 17:55:34;;;;;;;13.07;12.03;;;;;;;8.61;100.00;100219.31;2009161;71;32878;-75
2022/02/18 18:01:18;;;;;;;26.83;24.73;;;;;;;7.08;100.00;100195.32;2006900;71;33411;-75
2022/02/18 18:07:02;;;;;;;46.77;43.57;;;;;;;6.76;100.00;100237.84;2017612;71;32796;-73
2022/02/18 18:12:48;;;;;;;58.50;54.80;;;;;;;6.28;100.00;100257.64;2010386;71;33043;-76
2022/02/18 18:18:32;;;;;;;67.63;62.97;;;;;;;5.93;100.00;100263.84;1994164;71;33444;-73
2022/02/18 18:24:16;;;;;;;67.60;62.93;;;;;;;5.95;100.00;100275.41;2014000;70;32901;-72
2022/02/18 18:30:00;;;;;;;62.10;58.30;;;;;;;5.80;100.00;100271.19;2010586;70;32941;-72
2022/02/18 18:35:45;;;;;;;66.03;62.03;;;;;;;5.84;100.00;100281.41;2010945;71;32739;-72
2022/02/18 18:41:29;;;;;;;61.77;57.97;;;;;;;5.70;100.00;100289.87;2014389;71;32956;-72
2022/02/18 18:47:13;;;;;;;62.67;58.73;;;;;;;5.74;100.00;100315.79;2017762;71;32816;-73
2022/02/18 18:52:57;;;;;;;60.80;56.97;;;;;;;5.81;100.00;100344.50;2010412;70;32802;-75
2022/02/18 18:58:42;;;;;;;64.57;60.67;;;;;;;5.72;100.00;100352.98;2008682;71;33296;-73
2022/02/18 19:04:26;;;;;;;62.33;58.33;;;;;;;5.74;100.00;100379.71;1990789;71;32769;-71
2022/02/18 19:10:12;;;;;;;64.63;60.30;;;;;;;5.74;100.00;100404.51;2014059;71;32801;-74
2022/02/18 19:15:56;;;;;;;63.10;59.10;;;;;;;5.82;100.00;100419.17;2011153;71;32795;-72
2022/02/18 19:21:40;;;;;;;62.83;58.93;;;;;;;5.80;100.00;100418.08;2013981;71;32808;-74
2022/02/18 19:27:25;;;;;;;64.40;60.33;;;;;;;5.75;100.00;100408.94;2016011;71;33268;-72
2022/02/18 19:33:09;;;;;;;64.80;60.80;;;;;;;5.43;100.00;100367.66;1990789;71;32811;-74
2022/02/18 19:38:53;;;;;;;68.00;63.53;;;;;;;5.66;100.00;100422.37;2009328;71;32744;-71
2022/02/18 19:44:37;;;;;;;65.30;61.37;;;;;;;5.85;100.00;100422.80;2005279;71;32842;-71
2022/02/18 19:50:22;;;;;;;65.33;61.10;;;;;;;5.54;100.00;100447.89;2014370;71;32873;-75
2022/02/18 19:56:06;;;;;;;65.67;61.63;;;;;;;5.70;100.00;100452.44;2017918;71;32905;-73
2022/02/18 20:01:52;;;;;;;67.60;63.40;;;;;;;5.43;100.00;100473.69;1996441;71;32787;-72
2022/02/18 20:07:37;;;;;;;67.13;62.63;;;;;;;5.56;100.00;100472.44;2010686;71;32880;-73
2022/02/18 20:13:23;;;;;;;69.47;65.23;;;;;;;5.63;100.00;100495.08;2007314;71;32934;-72
2022/02/18 20:19:07;;;;;;;67.07;62.60;;;;;;;5.58;100.00;100528.09;1994257;71;32967;-72
2022/02/18 20:24:51;;;;;;;69.50;65.07;;;;;;;5.59;100.00;100547.66;1996394;71;33217;-73
2022/02/18 20:30:36;;;;;;;66.73;62.53;;;;;;;5.76;100.00;100563.55;2003367;71;32866;-75
2022/02/18 20:36:22;;;;;;;64.57;60.63;;;;;;;5.61;100.00;100565.59;2014091;71;32900;-72
2022/02/18 20:42:07;;;;;;;62.07;58.13;;;;;;;5.61;100.00;100569.72;1990774;71;32733;-74
2022/02/18 20:47:51;;;;;;;58.70;55.17;;;;;;;5.55;100.00;100585.92;1999999;71;32876;-75
2022/02/18 20:53:36;;;;;;;56.83;53.27;;;;;;;5.68;100.00;100599.84;2006953;71;32785;-75
2022/02/18 20:59:20;;;;;;;53.90;50.70;;;;;;;5.55;100.00;100613.47;1999537;71;32814;-71
2022/02/18 21:05:05;;;;;;;50.10;46.87;;;;;;;5.70;100.00;100629.33;1976884;72;32985;-75
2022/02/18 21:10:50;;;;;;;45.83;43.03;;;;;;;5.72;100.00;100625.78;2011138;70;32836;-73
2022/02/18 21:16:39;;;;;;;49.30;46.10;;;;;;;5.79;100.00;100656.72;2003405;71;32930;-73
2022/02/18 21:22:20;;;;;;;45.07;41.97;;;;;;;5.77;100.00;100656.16;2015797;71;32840;-74
2022/02/18 21:28:05;;;;;;;52.07;48.67;;;;;;;5.76;100.00;100661.38;2005275;71;32875;-74
2022/02/18 21:33:49;;;;;;;51.37;48.07;;;;;;;5.72;100.00;100683.11;2001674;71;32781;-71
2022/02/18 21:39:33;;;;;;;41.90;39.40;;;;;;;5.78;100.00;100704.11;2010687;71;33432;-73
2022/02/18 21:45:18;;;;;;;42.80;40.40;;;;;;;5.76;100.00;100712.36;1996224;71;32944;-72
2022/02/18 21:51:02;;;;;;;41.93;39.50;;;;;;;5.76;100.00;100724.22;2015936;71;33077;-75
2022/02/18 21:56:46;;;;;;;41.10;38.80;;;;;;;5.72;100.00;100745.66;2004837;71;32827;-72
2022/02/18 22:02:30;;;;;;;39.50;37.27;;;;;;;5.66;100.00;100758.52;2009334;71;32865;-74
2022/02/18 22:08:20;;;;;;;40.47;38.27;;;;;;;5.65;100.00;100781.64;2005174;71;33021;-72
2022/02/18 22:14:04;;;;;;;38.17;35.80;;;;;;;5.64;100.00;100788.27;2001828;71;32743;-74
2022/02/18 22:19:49;;;;;;;37.00;34.93;;;;;;;5.69;100.00;100804.84;2008946;71;33254;-74
2022/02/18 22:25:34;;;;;;;35.83;33.73;;;;;;;5.60;100.00;100809.16;1994030;71;33251;-75
2022/02/18 22:31:18;;;;;;;31.10;29.20;;;;;;;5.73;100.00;100834.13;2000145;71;32813;-71
2022/02/18 22:37:03;;;;;;;31.30;29.60;;;;;;;5.73;100.00;100850.13;1991113;71;32745;-71
2022/02/18 22:42:47;;;;;;;32.70;30.70;;;;;;;5.70;100.00;100861.64;2004896;71;32799;-75
2022/02/18 22:48:31;;;;;;;33.20;31.40;;;;;;;5.69;100.00;100867.42;2013985;71;32891;-75
2022/02/18 22:54:15;;;;;;;32.53;30.77;;;;;;;5.58;100.00;100890.38;2008561;71;33005;-71
2022/02/18 23:00:00;;;;;;;31.10;29.40;;;;;;;5.62;100.00;100899.80;2007223;71;32839;-71
2022/02/18 23:05:44;;;;;;;32.27;30.37;;;;;;;5.60;100.00;100904.75;2004786;71;32807;-75
2022/02/18 23:11:29;;;;;;;34.30;32.17;;;;;;;5.56;100.00;100918.20;2012334;71;32809;-71
2022/02/18 23:17:13;;;;;;;33.93;31.77;;;;;;;5.49;100.00;100929.37;2003141;71;33369;-71
2022/02/18 23:22:58;;;;;;;34.37;32.27;;;;;;;5.49;100.00;100943.68;2016004;71;32982;-76
2022/02/18 23:28:43;;;;;;;37.77;35.40;;;;;;;5.46;100.00;100962.94;2002003;71;33199;-74
2022/02/18 23:34:28;;;;;;;38.63;36.40;;;;;;;5.40;100.00;100966.67;2017816;71;33369;-72
2022/02/18 23:40:14;;;;;;;40.07;37.67;;;;;;;5.38;100.00;100957.83;2012216;71;32886;-74
2022/02/18 23:45:59;;;;;;;42.33;39.83;;;;;;;5.34;100.00;100964.09;1998256;71;33251;-72
2022/02/18 23:51:43;;;;;;;43.37;40.90;;;;;;;5.33;100.00;100963.25;1991305;71;33468;-75
2022/02/18 23:57:28;;;;;;;44.80;41.87;;;;;;;5.28;100.00;100980.20;2008599;71;33294;-75
